Time;durP1;ratioP1;P1;durP2;ratioP2;P2;SDS_P1;SDS_P2;PMS_P1;PMS_P2;Temp;Humidity;BMP_temperature;BMP_pressure;BME280_temperature;BME280_humidity;BME280_pressure;Samples;Min_cycle;Max_cycle;Signal;HPM_P1;HPM_P2
2022/01/26 00:06:42;;;;;;;69.15;24.77;;;3.50;99.90;;;;;;5042068;28;20052;-77
2022/01/26 00:09:08;;;;;;;73.13;23.83;;;3.50;99.90;;;;;;5027008;28;20548;-77
2022/01/26 00:11:35;;;;;;;68.00;22.83;;;3.50;99.90;;;;;;5025893;28;20052;-77
2022/01/26 00:14:02;;;;;;;72.13;23.80;;;3.50;99.90;;;;;;5043235;28;20079;-77
2022/01/26 00:16:38;;;;;;;75.32;25.05;;;3.50;99.90;;;;;;5026708;28;20037;-77
2022/01/26 00:19:06;;;;;;;70.95;24.55;;;3.50;99.90;;;;;;5025998;28;20041;-77
2022/01/26 00:21:36;;;;;;;71.32;23.25;;;3.50;99.90;;;;;;5043165;28;20045;-77
2022/01/26 00:24:22;;;;;;;78.75;22.77;;;3.50;99.90;;;;;;5025574;28;20045;-77
2022/01/26 00:29:38;;;;;;;68.82;24.45;;;3.50;99.90;;;;;;5027684;28;20045;-77
2022/01/26 00:40:28;;;;;;;73.88;23.67;;;3.40;99.90;;;;;;5042343;28;20056;-77
2022/01/26 00:42:57;;;;;;;73.55;26.35;;;3.40;99.90;;;;;;5042981;28;20502;-77
2022/01/26 00:45:27;;;;;;;71.07;24.02;;;3.40;99.90;;;;;;5026360;28;20052;-77
2022/01/26 00:47:53;;;;;;;67.70;23.27;;;3.40;99.90;;;;;;5043234;28;20053;-77
2022/01/26 00:50:19;;;;;;;72.75;24.42;;;3.40;99.90;;;;;;5042182;28;20041;-76
2022/01/26 00:52:52;;;;;;;71.18;24.60;;;3.40;99.90;;;;;;5029224;28;20120;-77
2022/01/26 00:55:19;;;;;;;69.93;23.45;;;3.50;99.90;;;;;;5030058;28;20533;-77
2022/01/26 00:57:45;;;;;;;73.95;24.23;;;3.40;99.90;;;;;;5029218;28;20045;-77
2022/01/26 01:00:17;;;;;;;68.15;22.90;;;3.40;99.90;;;;;;5046402;28;20268;-77
2022/01/26 01:02:43;;;;;;;68.47;24.20;;;3.50;99.90;;;;;;5047225;28;20037;-77
2022/01/26 01:05:35;;;;;;;61.53;21.13;;;3.40;99.90;;;;;;5046597;28;20550;-77
2022/01/26 01:08:03;;;;;;;67.25;23.70;;;3.70;99.90;;;;;;5045576;28;20092;-77
2022/01/26 01:10:30;;;;;;;75.72;24.20;;;3.40;99.90;;;;;;5029730;28;20049;-77
2022/01/26 01:12:56;;;;;;;77.55;25.70;;;3.40;99.90;;;;;;5046396;28;20056;-77
2022/01/26 01:15:24;;;;;;;64.05;22.08;;;3.40;99.90;;;;;;5046191;28;20098;-77
2022/01/26 01:17:55;;;;;;;68.55;23.27;;;3.40;99.90;;;;;;5047473;28;20076;-77
2022/01/26 01:21:00;;;;;;;71.53;24.25;;;3.40;99.90;;;;;;5045326;28;20072;-77
2022/01/26 01:26:41;;;;;;;64.65;22.95;;;3.40;99.90;;;;;;5047517;28;20049;-77
2022/01/26 01:31:26;;;;;;;71.53;24.30;;;3.40;99.90;;;;;;5045675;28;20533;-77
2022/01/26 01:33:51;;;;;;;76.05;24.88;;;3.40;99.90;;;;;;5045678;28;20116;-77
2022/01/26 01:36:20;;;;;;;69.25;23.95;;;3.40;99.90;;;;;;5028067;28;20131;-77
2022/01/26 01:38:46;;;;;;;77.03;23.73;;;3.30;99.90;;;;;;5028968;28;20478;-77
2022/01/26 01:41:12;;;;;;;79.97;24.75;;;3.40;99.90;;;;;;5045025;28;20037;-77
2022/01/26 01:43:38;;;;;;;68.97;24.55;;;4.20;99.90;;;;;;5045709;28;20186;-77
2022/01/26 01:46:04;;;;;;;70.57;23.05;;;3.30;99.90;;;;;;5044800;28;20127;-77
2022/01/26 01:48:32;;;;;;;71.85;23.42;;;3.30;99.90;;;;;;5045343;28;20175;-78
2022/01/26 01:51:02;;;;;;;66.45;23.15;;;3.30;99.90;;;;;;5028751;28;20048;-78
2022/01/26 01:53:34;;;;;;;56.90;20.92;;;3.30;99.90;;;;;;5044815;28;20128;-77
2022/01/26 01:56:00;;;;;;;57.35;22.83;;;3.30;99.90;;;;;;5029526;28;20041;-77
2022/01/26 01:58:27;;;;;;;66.72;23.73;;;3.30;99.90;;;;;;5011786;28;20405;-77
2022/01/26 02:00:52;;;;;;;63.25;22.95;;;3.30;99.90;;;;;;5029013;28;20052;-77
2022/01/26 02:03:18;;;;;;;60.13;22.15;;;3.30;99.90;;;;;;5044774;28;20068;-77
2022/01/26 02:05:44;;;;;;;75.82;24.13;;;3.30;99.90;;;;;;5044259;28;20521;-77
2022/01/26 02:08:10;;;;;;;67.03;22.58;;;3.90;99.90;;;;;;5044982;28;20091;-77
2022/01/26 02:10:36;;;;;;;70.60;24.13;;;3.30;99.90;;;;;;5027093;28;20103;-77
2022/01/26 02:13:12;;;;;;;68.93;23.05;;;3.30;99.90;;;;;;5046629;28;20049;-78
2022/01/26 02:15:49;;;;;;;66.47;21.77;;;3.30;99.90;;;;;;5027311;28;20041;-77
2022/01/26 02:49:35;;;;;;;72.38;22.45;;;3.30;99.90;;;;;;5007007;28;20330;-77
2022/01/26 02:54:53;;;;;;;69.50;23.15;;;3.30;99.90;;;;;;5043714;28;20600;-76
2022/01/26 02:57:39;;;;;;;68.60;23.15;;;3.30;99.90;;;;;;5001536;28;20150;-76
2022/01/26 03:00:19;;;;;;;70.55;24.13;;;3.30;99.90;;;;;;5044832;28;20104;-76
2022/01/26 03:05:18;;;;;;;69.05;24.13;;;3.30;99.90;;;;;;5043800;28;20413;-76
2022/01/26 03:07:52;;;;;;;71.75;25.83;;;3.30;99.90;;;;;;5043690;28;20516;-76
2022/01/26 03:10:21;;;;;;;75.78;25.42;;;3.30;99.90;;;;;;5027864;28;20044;-76
2022/01/26 03:12:56;;;;;;;72.10;25.10;;;3.30;99.90;;;;;;5044400;28;20049;-76
2022/01/26 03:15:28;;;;;;;72.22;25.58;;;3.30;99.90;;;;;;5042180;28;20056;-76
2022/01/26 03:20:22;;;;;;;78.80;25.42;;;3.30;99.90;;;;;;5027715;28;20051;-76
2022/01/26 03:28:14;;;;;;;72.13;25.25;;;3.30;99.90;;;;;;5044562;28;20128;-76
2022/01/26 03:34:08;;;;;;;75.30;25.90;;;3.30;99.90;;;;;;5043647;28;20049;-76
2022/01/26 03:36:42;;;;;;;80.43;28.25;;;3.30;99.90;;;;;;5042340;28;20514;-76
2022/01/26 03:39:10;;;;;;;72.22;25.85;;;3.00;99.90;;;;;;5012683;28;20053;-76
2022/01/26 03:44:07;;;;;;;72.55;23.70;;;3.30;99.90;;;;;;5042623;28;20053;-76
2022/01/26 03:46:33;;;;;;;66.13;24.13;;;3.30;99.90;;;;;;5026902;28;20048;-76
2022/01/26 03:48:59;;;;;;;71.07;24.60;;;3.20;99.90;;;;;;5042765;28;20037;-76
2022/01/26 03:51:26;;;;;;;75.63;24.48;;;3.30;99.90;;;;;;5027244;28;20308;-76
2022/01/26 03:53:51;;;;;;;69.28;23.92;;;3.30;99.90;;;;;;5043921;28;20045;-76
2022/01/26 03:56:17;;;;;;;71.25;22.63;;;3.30;99.90;;;;;;5026914;28;20056;-76
2022/01/26 03:58:43;;;;;;;72.60;24.38;;;3.30;99.90;;;;;;5042491;28;20079;-76
2022/01/26 04:01:08;;;;;;;73.72;23.48;;;3.30;99.90;;;;;;5042671;28;20082;-76
2022/01/26 04:03:34;;;;;;;62.45;21.88;;;3.30;99.90;;;;;;5027222;28;20457;-76
2022/01/26 04:06:00;;;;;;;71.70;24.17;;;3.30;99.90;;;;;;5025755;28;20102;-76
2022/01/26 04:08:29;;;;;;;61.63;21.63;;;3.30;99.90;;;;;;5026687;28;20478;-76
2022/01/26 04:13:27;;;;;;;70.28;24.88;;;3.30;99.90;;;;;;5043517;28;20099;-76
2022/01/26 04:15:53;;;;;;;66.35;21.50;;;3.30;99.90;;;;;;5042905;28;20088;-76
2022/01/26 04:18:25;;;;;;;66.40;23.23;;;3.30;99.90;;;;;;5042490;28;20049;-76
2022/01/26 04:20:54;;;;;;;63.97;22.42;;;3.30;99.90;;;;;;5027363;28;20052;-76
2022/01/26 04:23:33;;;;;;;59.40;21.35;;;3.30;99.90;;;;;;5025464;28;20041;-76
2022/01/26 04:25:58;;;;;;;55.83;22.27;;;3.20;99.90;;;;;;5045638;28;20088;-76
2022/01/26 04:28:31;;;;;;;65.28;22.30;;;3.30;99.90;;;;;;5046427;28;20083;-77
2022/01/26 04:30:57;;;;;;;60.70;22.17;;;3.20;99.90;;;;;;5030971;28;20554;-77
2022/01/26 04:33:23;;;;;;;54.83;21.98;;;3.30;99.90;;;;;;5030160;28;20310;-77
2022/01/26 04:35:49;;;;;;;58.83;22.40;;;3.20;99.90;;;;;;5029440;28;20044;-77
2022/01/26 04:38:31;;;;;;;61.05;23.65;;;3.20;99.90;;;;;;5046849;28;20044;-77
2022/01/26 04:43:43;;;;;;;66.05;21.33;;;3.20;99.90;;;;;;5046339;28;20148;-77
2022/01/26 04:46:09;;;;;;;63.28;20.52;;;3.20;99.90;;;;;;5046448;28;20061;-77
2022/01/26 04:48:35;;;;;;;62.00;21.33;;;3.20;99.90;;;;;;5029295;28;20059;-77
2022/01/26 04:51:01;;;;;;;56.10;21.30;;;3.20;99.90;;;;;;5030125;28;20478;-77
2022/01/26 04:53:27;;;;;;;57.20;21.38;;;3.20;99.90;;;;;;5028784;28;20486;-77
2022/01/26 04:55:53;;;;;;;50.55;19.35;;;3.20;99.90;;;;;;5030088;28;20141;-77
2022/01/26 04:58:19;;;;;;;54.60;21.13;;;3.20;99.90;;;;;;5029497;28;20452;-76
2022/01/26 05:00:45;;;;;;;58.83;21.23;;;3.80;99.90;;;;;;5046279;28;20481;-77
2022/01/26 05:03:11;;;;;;;55.22;20.42;;;3.20;99.90;;;;;;5046630;28;20072;-76
2022/01/26 05:05:36;;;;;;;53.97;20.52;;;3.20;99.90;;;;;;5045916;28;20218;-76
2022/01/26 05:08:02;;;;;;;52.88;20.77;;;3.20;99.90;;;;;;5046146;28;20411;-76
2022/01/26 05:10:28;;;;;;;58.80;20.02;;;3.20;99.90;;;;;;5045473;28;20089;-76
2022/01/26 05:12:54;;;;;;;57.42;22.10;;;3.10;99.90;;;;;;5013228;28;20444;-76
2022/01/26 05:15:23;;;;;;;57.60;21.52;;;3.10;99.90;;;;;;5045116;28;20090;-76
2022/01/26 05:17:49;;;;;;;56.47;19.00;;;3.10;99.90;;;;;;5029380;28;20186;-76
2022/01/26 05:20:15;;;;;;;62.00;20.67;;;3.10;99.90;;;;;;5029305;28;20086;-76
2022/01/26 05:22:44;;;;;;;58.63;21.65;;;3.20;99.90;;;;;;5045563;28;20112;-76
2022/01/26 05:25:10;;;;;;;58.13;20.77;;;3.10;99.90;;;;;;5046175;28;20253;-76
2022/01/26 05:27:36;;;;;;;59.95;22.45;;;3.10;99.90;;;;;;5044717;28;20060;-76
2022/01/26 05:30:04;;;;;;;51.78;19.75;;;3.10;99.90;;;;;;5029868;28;20044;-76
2022/01/26 05:32:29;;;;;;;52.33;18.58;;;3.10;99.90;;;;;;5028410;28;20194;-76
2022/01/26 05:34:55;;;;;;;64.65;20.35;;;3.10;99.90;;;;;;5012457;28;20132;-77
2022/01/26 05:37:21;;;;;;;55.60;19.52;;;3.10;99.90;;;;;;5012183;28;20045;-77
2022/01/26 05:39:47;;;;;;;51.60;19.77;;;3.10;99.90;;;;;;5046448;28;20075;-77
2022/01/26 05:42:13;;;;;;;55.60;19.95;;;3.10;99.90;;;;;;5047069;28;20032;-77
2022/01/26 05:44:38;;;;;;;57.03;19.08;;;3.10;99.90;;;;;;5045040;28;20052;-77
2022/01/26 05:47:07;;;;;;;51.72;17.88;;;3.10;99.90;;;;;;5045685;28;20041;-77
2022/01/26 05:49:33;;;;;;;55.28;20.02;;;3.10;99.90;;;;;;5027784;28;20056;-76
2022/01/26 05:51:59;;;;;;;56.97;19.33;;;3.10;99.90;;;;;;5045235;28;20114;-77
2022/01/26 05:54:25;;;;;;;51.33;17.95;;;3.10;99.90;;;;;;5045666;28;20060;-77
2022/01/26 05:56:50;;;;;;;46.33;18.13;;;3.10;99.90;;;;;;5044421;28;20119;-76
2022/01/26 05:59:19;;;;;;;53.45;19.15;;;3.00;99.90;;;;;;5029098;28;20477;-77
2022/01/26 06:01:49;;;;;;;56.22;19.02;;;3.00;99.90;;;;;;5044038;28;20725;-77
2022/01/26 06:04:15;;;;;;;58.20;20.02;;;3.00;99.90;;;;;;5045262;28;20482;-77
2022/01/26 06:06:41;;;;;;;48.90;19.60;;;4.20;99.90;;;;;;5027534;28;20068;-77
2022/01/26 06:09:06;;;;;;;58.63;19.90;;;1.80;99.90;;;;;;5046455;28;20482;-77
2022/01/26 06:11:32;;;;;;;56.90;19.95;;;3.00;99.90;;;;;;5044786;28;20045;-77
2022/01/26 06:13:58;;;;;;;56.72;19.38;;;3.00;99.90;;;;;;5045593;28;20049;-76
2022/01/26 06:16:23;;;;;;;59.35;20.38;;;3.70;99.90;;;;;;5011707;28;20379;-76
2022/01/26 06:18:49;;;;;;;60.85;20.13;;;3.00;99.90;;;;;;5044013;28;20049;-77
2022/01/26 06:21:15;;;;;;;57.47;19.80;;;3.00;99.90;;;;;;5045543;28;20498;-77
2022/01/26 06:23:41;;;;;;;51.05;19.17;;;3.00;99.90;;;;;;5027506;28;20048;-77
2022/01/26 06:26:07;;;;;;;58.35;20.98;;;3.00;99.90;;;;;;5044588;28;20084;-76
2022/01/26 06:28:33;;;;;;;54.30;18.90;;;3.00;99.90;;;;;;5027756;28;20045;-77
2022/01/26 06:31:04;;;;;;;55.25;18.42;;;3.00;99.90;;;;;;5044363;28;20516;-76
2022/01/26 06:33:33;;;;;;;50.17;20.50;;;3.00;99.90;;;;;;5044855;28;20458;-77
2022/01/26 06:36:00;;;;;;;63.00;21.15;;;3.00;99.90;;;;;;5027060;28;20041;-77
2022/01/26 06:38:27;;;;;;;56.05;19.63;;;3.00;99.90;;;;;;5043725;28;20053;-76
2022/01/26 06:40:57;;;;;;;58.75;19.35;;;3.00;99.90;;;;;;5041966;28;20049;-76
2022/01/26 06:43:26;;;;;;;60.10;21.40;;;3.20;99.90;;;;;;5025255;28;20049;-77
2022/01/26 06:46:04;;;;;;;59.13;20.08;;;3.00;99.90;;;;;;5027172;28;20135;-78
2022/01/26 06:50:56;;;;;;;56.72;19.30;;;3.00;99.90;;;;;;5042526;28;20493;-77
2022/01/26 06:53:24;;;;;;;59.60;20.55;;;3.00;99.90;;;;;;5043491;28;20037;-78
2022/01/26 06:55:50;;;;;;;56.63;20.88;;;3.00;99.90;;;;;;5044770;28;20486;-78
2022/01/26 06:58:16;;;;;;;57.38;20.55;;;3.60;99.90;;;;;;5042815;28;20041;-78
2022/01/26 07:00:42;;;;;;;57.58;20.90;;;3.00;99.90;;;;;;5043965;28;20517;-77
2022/01/26 07:03:08;;;;;;;63.53;22.15;;;3.00;99.90;;;;;;5011332;28;20040;-77
2022/01/26 07:05:34;;;;;;;63.97;20.50;;;3.00;99.90;;;;;;5025992;28;20217;-78
2022/01/26 07:08:00;;;;;;;59.85;21.77;;;3.00;99.90;;;;;;5042174;28;20056;-77
2022/01/26 07:10:26;;;;;;;54.58;18.80;;;3.00;99.90;;;;;;5042330;28;20128;-78
2022/01/26 07:12:51;;;;;;;58.53;21.52;;;3.00;99.90;;;;;;5042551;28;20052;-78
2022/01/26 07:21:23;;;;;;;54.47;20.23;;;4.00;99.90;;;;;;5006663;28;20061;-78
2022/01/26 07:23:49;;;;;;;67.22;21.33;;;3.10;99.90;;;;;;5006198;28;20100;-78
2022/01/26 07:26:15;;;;;;;62.42;20.20;;;3.10;99.90;;;;;;5007514;28;20736;-77
2022/01/26 07:28:41;;;;;;;67.60;23.23;;;3.00;99.90;;;;;;5026241;28;20041;-77
2022/01/26 07:31:08;;;;;;;55.05;20.98;;;3.10;99.90;;;;;;5025994;28;20051;-79
2022/01/26 07:33:34;;;;;;;57.80;21.08;;;3.20;99.90;;;;;;5043935;28;20045;-79
2022/01/26 07:36:00;;;;;;;60.95;21.95;;;3.10;99.90;;;;;;5042113;28;20048;-77
2022/01/26 07:38:26;;;;;;;56.30;21.98;;;3.10;99.90;;;;;;5043265;28;20082;-78
2022/01/26 07:40:53;;;;;;;66.40;22.88;;;3.10;99.90;;;;;;5042903;28;20052;-78
2022/01/26 07:43:19;;;;;;;57.67;21.45;;;3.10;99.90;;;;;;5044277;28;20533;-78
2022/01/26 07:45:45;;;;;;;57.92;21.45;;;3.10;99.90;;;;;;5043403;28;20053;-79
2022/01/26 07:48:11;;;;;;;65.10;23.27;;;3.10;99.90;;;;;;5043986;28;20044;-79
2022/01/26 07:50:36;;;;;;;63.78;24.02;;;3.10;99.90;;;;;;5043661;28;20475;-78
2022/01/26 07:53:03;;;;;;;54.65;23.23;;;3.10;99.90;;;;;;5009138;28;20041;-78
2022/01/26 07:55:30;;;;;;;71.35;24.95;;;3.20;99.90;;;;;;5043928;28;20126;-78
2022/01/26 07:57:56;;;;;;;65.68;23.42;;;3.10;99.90;;;;;;5026023;28;20056;-78
2022/01/26 08:00:23;;;;;;;68.20;24.85;;;3.20;99.90;;;;;;5011959;28;20111;-79
2022/01/26 08:02:49;;;;;;;70.88;24.45;;;3.20;99.90;;;;;;5047237;28;20067;-79
2022/01/26 08:05:16;;;;;;;65.25;24.77;;;3.20;99.90;;;;;;5030122;28;20124;-76
2022/01/26 08:07:43;;;;;;;61.72;23.90;;;3.20;99.90;;;;;;5047384;28;20186;-77
2022/01/26 08:10:10;;;;;;;72.60;25.02;;;3.20;99.90;;;;;;5029795;28;20037;-78
2022/01/26 08:12:38;;;;;;;63.20;24.50;;;3.20;99.90;;;;;;5031214;28;20468;-78
2022/01/26 08:15:05;;;;;;;73.65;26.35;;;4.50;99.90;;;;;;5046385;28;20081;-79
2022/01/26 08:17:31;;;;;;;72.35;25.35;;;3.30;99.90;;;;;;5030547;28;20123;-77
2022/01/26 08:19:57;;;;;;;64.07;25.17;;;4.20;99.90;;;;;;5012950;28;20080;-77
2022/01/26 08:22:25;;;;;;;65.88;25.23;;;3.40;99.90;;;;;;5030164;28;20041;-78
2022/01/26 08:24:51;;;;;;;72.95;26.27;;;3.30;99.90;;;;;;5030789;28;20116;-78
2022/01/26 08:27:19;;;;;;;67.38;26.25;;;3.30;99.90;;;;;;5045565;28;20127;-78
2022/01/26 08:29:51;;;;;;;73.15;26.13;;;3.40;99.90;;;;;;5047045;28;20084;-78
2022/01/26 08:32:17;;;;;;;70.10;24.40;;;3.40;99.90;;;;;;5045834;28;20544;-77
2022/01/26 08:34:43;;;;;;;75.47;27.25;;;3.40;99.90;;;;;;5047211;28;20049;-78
2022/01/26 08:37:09;;;;;;;68.72;24.92;;;3.40;99.90;;;;;;5030222;28;20505;-77
2022/01/26 08:39:36;;;;;;;68.70;25.67;;;4.30;99.90;;;;;;5046045;28;20053;-78
2022/01/26 08:42:05;;;;;;;68.35;25.77;;;3.50;99.90;;;;;;5047309;28;20106;-77
2022/01/26 08:44:31;;;;;;;65.43;26.42;;;3.50;99.90;;;;;;5045352;28;20049;-77
2022/01/26 08:46:57;;;;;;;64.60;26.55;;;3.50;99.90;;;;;;5047104;28;20227;-77
2022/01/26 08:49:25;;;;;;;70.10;25.73;;;3.50;99.90;;;;;;5046120;28;20047;-77
2022/01/26 08:51:51;;;;;;;66.38;26.80;;;3.50;99.90;;;;;;5047681;28;20049;-76
2022/01/26 08:54:20;;;;;;;68.70;27.50;;;3.50;99.90;;;;;;5046338;28;20257;-77
2022/01/26 08:56:55;;;;;;;66.40;25.77;;;3.50;99.90;;;;;;5045380;28;20040;-77
2022/01/26 08:59:23;;;;;;;65.10;26.08;;;3.60;99.90;;;;;;5029835;28;20135;-77
2022/01/26 09:01:49;;;;;;;70.20;26.45;;;3.60;99.90;;;;;;5045300;28;20059;-77
2022/01/26 09:04:15;;;;;;;74.05;28.00;;;3.60;99.90;;;;;;5046652;28;20134;-77
2022/01/26 09:07:00;;;;;;;77.78;29.13;;;3.60;99.90;;;;;;5045261;28;20524;-77
2022/01/26 09:09:30;;;;;;;75.10;27.52;;;3.60;99.90;;;;;;5045428;28;20080;-77
2022/01/26 09:11:58;;;;;;;73.07;28.10;;;3.60;99.90;;;;;;5012853;28;20040;-77
2022/01/26 09:14:27;;;;;;;75.55;28.58;;;3.60;99.90;;;;;;5028500;28;20557;-77
2022/01/26 09:16:54;;;;;;;71.68;27.30;;;4.10;99.90;;;;;;5046036;28;20494;-77
2022/01/26 09:19:28;;;;;;;75.10;27.98;;;3.70;99.90;;;;;;5044688;28;20045;-77
2022/01/26 09:22:01;;;;;;;71.25;27.23;;;4.90;99.90;;;;;;5028829;28;20045;-77
2022/01/26 09:24:28;;;;;;;50.78;20.55;;;3.70;99.90;;;;;;5029087;28;20083;-77
2022/01/26 09:26:54;;;;;;;74.50;27.08;;;3.70;99.90;;;;;;5044388;28;20052;-77
2022/01/26 09:29:20;;;;;;;67.97;27.80;;;3.70;99.90;;;;;;5046294;28;20048;-77
2022/01/26 09:31:47;;;;;;;69.93;27.40;;;3.70;99.90;;;;;;5044668;28;20787;-77
2022/01/26 09:34:24;;;;;;;70.75;28.98;;;3.80;99.90;;;;;;5047505;28;20055;-77
2022/01/26 09:36:50;;;;;;;70.20;28.35;;;3.80;99.90;;;;;;5045079;28;20120;-76
2022/01/26 09:39:18;;;;;;;64.05;28.73;;;3.80;99.90;;;;;;5045436;28;20044;-76
2022/01/26 09:41:45;;;;;;;69.93;28.33;;;3.80;99.90;;;;;;5046009;28;20040;-76
2022/01/26 09:44:12;;;;;;;60.15;25.88;;;3.90;99.90;;;;;;5028033;28;20063;-75
2022/01/26 09:46:39;;;;;;;66.85;27.20;;;3.90;99.90;;;;;;5045778;28;20414;-75
2022/01/26 09:49:06;;;;;;;75.35;29.88;;;3.90;99.90;;;;;;5027831;28;20077;-75
2022/01/26 09:51:39;;;;;;;71.03;26.77;;;3.90;99.90;;;;;;5045705;28;20055;-75
2022/01/26 09:54:10;;;;;;;67.28;28.27;;;4.00;99.90;;;;;;5045045;28;20052;-76
2022/01/26 09:56:37;;;;;;;67.07;27.67;;;4.00;99.90;;;;;;5046223;28;20045;-76
2022/01/26 09:59:03;;;;;;;68.18;26.38;;;4.00;99.90;;;;;;5045559;28;20087;-75
2022/01/26 10:01:51;;;;;;;70.80;25.85;;;4.10;99.90;;;;;;5043796;28;20124;-76
2022/01/26 10:04:30;;;;;;;57.85;23.35;;;4.10;99.90;;;;;;5046815;28;20098;-76
2022/01/26 10:10:02;;;;;;;58.80;24.35;;;4.20;99.90;;;;;;5044067;28;20057;-77
2022/01/26 10:15:29;;;;;;;57.50;25.35;;;4.90;99.90;;;;;;5045354;28;20132;-77
2022/01/26 10:18:08;;;;;;;56.67;24.30;;;4.90;99.90;;;;;;5044674;28;20041;-77
2022/01/26 10:20:57;;;;;;;61.63;25.17;;;4.30;99.90;;;;;;5028024;28;20203;-78
2022/01/26 10:23:25;;;;;;;55.78;23.00;;;4.30;99.90;;;;;;5044483;28;20049;-77
2022/01/26 10:26:03;;;;;;;61.30;24.30;;;4.30;99.90;;;;;;5028444;28;20083;-76
2022/01/26 10:29:00;;;;;;;63.35;22.63;;;4.40;99.90;;;;;;5044201;28;20048;-77
2022/01/26 10:31:36;;;;;;;56.35;21.48;;;4.40;99.90;;;;;;5026888;28;20045;-78
2022/01/26 10:34:10;;;;;;;65.63;24.48;;;4.40;99.90;;;;;;5045439;28;20053;-78
2022/01/26 10:36:40;;;;;;;51.90;22.77;;;4.40;99.90;;;;;;5026953;28;20080;-77
2022/01/26 10:39:12;;;;;;;49.53;21.92;;;4.40;99.90;;;;;;5044902;28;20405;-77
2022/01/26 10:41:40;;;;;;;59.33;21.92;;;4.40;99.90;;;;;;5044569;28;20084;-78
2022/01/26 10:44:07;;;;;;;54.80;22.10;;;4.40;99.90;;;;;;5043332;28;20115;-78
2022/01/26 10:46:38;;;;;;;56.28;22.35;;;4.50;99.90;;;;;;5044659;28;20053;-77
2022/01/26 10:54:22;;;;;;;56.72;23.08;;;4.50;99.90;;;;;;5044035;28;20056;-77
2022/01/26 10:56:48;;;;;;;47.25;20.27;;;4.90;99.90;;;;;;5044182;28;20335;-77
2022/01/26 10:59:14;;;;;;;54.28;20.35;;;4.50;99.90;;;;;;5044995;28;20045;-77
2022/01/26 11:01:40;;;;;;;47.90;19.58;;;4.50;99.90;;;;;;5042549;28;20541;-77
2022/01/26 11:04:07;;;;;;;48.50;20.33;;;4.50;99.90;;;;;;5044261;28;20056;-77
2022/01/26 11:06:33;;;;;;;51.58;20.80;;;4.80;99.90;;;;;;5026628;28;20045;-76
2022/01/26 11:09:07;;;;;;;53.05;21.17;;;4.50;99.90;;;;;;5028004;28;20394;-77
2022/01/26 11:11:34;;;;;;;52.25;19.83;;;4.60;99.90;;;;;;5044148;28;20056;-77
2022/01/26 11:14:00;;;;;;;55.15;20.95;;;4.50;99.90;;;;;;5010385;28;20494;-77
2022/01/26 11:16:25;;;;;;;48.42;21.02;;;4.50;99.90;;;;;;5043761;28;20087;-77
2022/01/26 11:18:53;;;;;;;47.80;20.00;;;4.50;99.90;;;;;;5042471;28;20040;-77
2022/01/26 11:21:34;;;;;;;50.83;19.42;;;4.50;99.90;;;;;;5028212;28;20082;-77
2022/01/26 11:24:42;;;;;;;52.08;21.30;;;4.50;99.90;;;;;;5043449;28;20041;-76
2022/01/26 11:27:08;;;;;;;52.45;20.35;;;4.50;99.90;;;;;;5001581;28;20062;-76
2022/01/26 11:29:37;;;;;;;43.40;19.50;;;4.50;99.90;;;;;;4986720;28;20096;-76
2022/01/26 11:32:14;;;;;;;52.03;21.80;;;4.50;99.90;;;;;;5013652;28;20053;-76
2022/01/26 11:34:41;;;;;;;55.33;20.80;;;4.50;99.90;;;;;;5044903;28;20138;-76
2022/01/26 11:37:11;;;;;;;53.58;20.23;;;4.60;99.90;;;;;;5043439;28;20048;-76
2022/01/26 11:45:13;;;;;;;53.65;21.15;;;6.20;99.90;;;;;;5042570;28;20049;-77
2022/01/26 11:48:16;;;;;;;54.60;20.00;;;5.90;99.90;;;;;;5044379;28;20106;-77
2022/01/26 11:50:42;;;;;;;48.45;18.80;;;4.90;99.90;;;;;;5026546;28;20510;-78
2022/01/26 11:53:10;;;;;;;47.50;19.38;;;4.80;99.90;;;;;;5042728;28;20429;-78
2022/01/26 11:55:41;;;;;;;52.70;19.17;;;4.80;99.90;;;;;;5043909;28;20052;-76
2022/01/26 11:58:21;;;;;;;52.05;20.98;;;4.80;99.90;;;;;;5042516;28;20044;-75
2022/01/26 12:01:10;;;;;;;51.65;20.75;;;4.80;99.90;;;;;;5042783;28;20059;-77
2022/01/26 12:03:44;;;;;;;51.25;20.58;;;5.00;99.90;;;;;;5043544;28;20048;-76
2022/01/26 12:06:19;;;;;;;55.10;20.33;;;4.70;99.90;;;;;;5025797;28;20438;-76
2022/01/26 12:08:46;;;;;;;56.70;21.05;;;4.70;99.90;;;;;;5027344;28;20124;-76
2022/01/26 12:11:14;;;;;;;54.30;19.85;;;5.10;99.90;;;;;;5043170;28;20479;-76
2022/01/26 12:13:41;;;;;;;49.33;19.77;;;5.60;99.90;;;;;;5043041;28;20060;-76
2022/01/26 12:16:13;;;;;;;59.65;21.20;;;4.70;99.90;;;;;;5026768;28;20502;-76
2022/01/26 12:18:54;;;;;;;54.90;22.90;;;4.70;99.90;;;;;;5026399;28;20052;-76
2022/01/26 12:32:55;;;;;;;61.95;22.20;;;4.80;99.90;;;;;;5042666;28;20053;-75
2022/01/26 12:35:46;;;;;;;53.35;21.90;;;4.80;99.90;;;;;;5025782;28;20052;-76
2022/01/26 12:38:22;;;;;;;54.47;21.73;;;4.80;99.90;;;;;;5027181;28;20037;-77
2022/01/26 12:43:49;;;;;;;55.95;21.08;;;4.80;99.90;;;;;;5042255;28;20136;-75
2022/01/26 12:46:18;;;;;;;56.67;23.13;;;4.80;99.90;;;;;;5043874;28;20049;-74
2022/01/26 12:48:54;;;;;;;59.78;22.20;;;4.70;99.90;;;;;;5045138;28;20127;-75
2022/01/26 12:51:20;;;;;;;65.68;23.02;;;4.20;99.90;;;;;;5030842;28;20469;-75
2022/01/26 12:53:55;;;;;;;57.67;22.48;;;4.80;99.90;;;;;;5045333;28;20127;-76
2022/01/26 12:56:25;;;;;;;60.83;22.38;;;4.80;99.90;;;;;;5045733;28;20133;-75
2022/01/26 12:59:05;;;;;;;46.55;21.38;;;4.80;99.90;;;;;;5029685;28;20094;-75
2022/01/26 13:01:32;;;;;;;58.92;22.35;;;4.80;99.90;;;;;;5044822;28;20077;-76
2022/01/26 13:04:00;;;;;;;51.08;21.45;;;4.80;99.90;;;;;;5013960;28;20286;-76
2022/01/26 13:06:36;;;;;;;45.88;19.85;;;4.90;99.90;;;;;;5045057;28;20061;-75
2022/01/26 13:09:27;;;;;;;53.08;22.05;;;4.90;99.90;;;;;;5045675;28;20041;-76
2022/01/26 13:12:02;;;;;;;45.22;20.40;;;4.90;99.90;;;;;;5046565;28;20438;-76
2022/01/26 13:14:43;;;;;;;59.30;19.17;;;5.00;99.90;;;;;;5044582;28;20134;-76
2022/01/26 13:20:28;;;;;;;52.00;21.33;;;5.10;99.90;;;;;;5046274;28;20045;-76
2022/01/26 13:37:00;;;;;;;56.25;21.65;;;5.20;99.90;;;;;;5043133;28;20060;-77
2022/01/26 13:50:08;;;;;;;50.50;20.95;;;5.20;99.90;;;;;;5045412;28;20052;-77
2022/01/26 14:00:46;;;;;;;54.55;19.60;;;5.30;99.90;;;;;;5030856;28;20052;-77
2022/01/26 14:03:15;;;;;;;47.60;20.00;;;5.30;99.90;;;;;;5029176;28;20089;-77
2022/01/26 14:05:41;;;;;;;50.67;19.90;;;5.40;99.90;;;;;;5043169;28;20051;-77
2022/01/26 14:08:08;;;;;;;47.95;17.95;;;5.40;99.90;;;;;;4996015;28;20314;-78
2022/01/26 14:10:36;;;;;;;47.53;18.00;;;5.40;99.90;;;;;;5010728;28;20041;-75
2022/01/26 14:13:02;;;;;;;46.72;18.60;;;5.50;99.90;;;;;;5045143;28;20128;-76
2022/01/26 14:15:39;;;;;;;42.40;17.60;;;5.40;99.90;;;;;;5027612;28;20075;-76
2022/01/26 14:18:40;;;;;;;48.85;19.45;;;5.50;99.90;;;;;;5045365;28;20066;-75
2022/01/26 14:21:11;;;;;;;43.25;16.67;;;5.50;99.90;;;;;;5045416;28;20056;-78
2022/01/26 14:23:57;;;;;;;47.53;19.00;;;5.50;99.90;;;;;;5029664;28;20457;-77
2022/01/26 14:26:26;;;;;;;50.53;17.88;;;5.60;99.90;;;;;;5045416;28;20036;-78
2022/01/26 14:28:52;;;;;;;43.30;18.48;;;5.60;99.90;;;;;;5045047;28;20043;-77
2022/01/26 14:31:29;;;;;;;50.08;19.08;;;5.60;99.90;;;;;;5043452;28;20128;-78
2022/01/26 14:34:34;;;;;;;41.47;17.58;;;6.80;99.90;;;;;;5046638;28;20409;-77
2022/01/26 14:39:42;;;;;;;50.10;18.30;;;6.00;99.90;;;;;;5045629;28;20402;-78
2022/01/26 14:40:05;;;;;;;41.38;16.58;;;5.60;99.90;;;;;;5044847;28;20228;-78
2022/01/26 15:08:43;;;;;;;38.22;15.68;;;5.90;99.90;;;;;;5043030;28;20107;-77
2022/01/26 15:19:05;;;;;;;39.28;15.38;;;5.60;99.90;;;;;;5028960;28;20052;-77
2022/01/26 15:33:51;;;;;;;38.28;17.45;;;5.60;99.90;;;;;;5029122;28;20049;-77
2022/01/26 15:42:21;;;;;;;44.88;18.50;;;5.60;99.90;;;;;;5043763;28;20052;-77
2022/01/26 15:50:06;;;;;;;41.15;17.25;;;5.60;99.90;;;;;;5029548;28;20198;-77
2022/01/26 15:52:47;;;;;;;43.40;17.75;;;5.60;99.90;;;;;;5042457;28;20049;-77
2022/01/26 16:06:16;;;;;;;43.70;17.67;;;5.70;99.90;;;;;;5042089;28;20053;-77
2022/01/26 16:17:15;;;;;;;41.75;16.48;;;5.60;99.90;;;;;;5042958;28;20165;-78
2022/01/26 16:39:08;;;;;;;41.28;18.88;;;6.30;99.90;;;;;;5047448;28;20040;-76
2022/01/26 18:26:09;;;;;;;32.83;14.00;;;6.00;99.90;;;;;;5030117;28;20085;-76
2022/01/26 18:50:25;;;;;;;34.67;14.55;;;6.10;99.90;;;;;;5046042;28;20045;-76
2022/01/26 18:52:51;;;;;;;31.02;12.88;;;6.20;99.90;;;;;;5043111;28;20045;-76
2022/01/26 18:55:17;;;;;;;30.38;13.13;;;6.20;99.90;;;;;;5045389;28;20051;-76
2022/01/26 18:57:43;;;;;;;26.50;12.52;;;6.20;99.90;;;;;;5027805;28;20083;-74
2022/01/26 19:00:10;;;;;;;31.27;12.45;;;6.20;99.90;;;;;;5043635;28;20053;-76
2022/01/26 19:02:35;;;;;;;30.48;12.82;;;6.20;99.90;;;;;;5044334;28;20041;-75
2022/01/26 19:05:01;;;;;;;27.15;12.88;;;6.90;99.90;;;;;;5026298;28;20052;-75